Time;durP1;ratioP1;P1;durP2;ratioP2;P2;SDS_P1;SDS_P2;PMS_P1;PMS_P2;Temp;Humidity;BMP_temperature;BMP_pressure;BME280_temperature;BME280_humidity;BME280_pressure;Samples;Min_cycle;Max_cycle;Signal;HPM_P1;HPM_P2
2022/09/23 00:00:42;;;;;;;11.52;7.28;;;12.60;99.90;;;;;;5060245;28;20036;-73
2022/09/23 00:03:09;;;;;;;12.55;7.45;;;12.60;99.90;;;;;;5053950;28;20037;-73
2022/09/23 00:05:39;;;;;;;9.65;7.00;;;12.50;99.90;;;;;;5067107;28;20057;-74
2022/09/23 00:08:06;;;;;;;9.63;7.03;;;12.50;99.90;;;;;;5074624;28;20065;-73
2022/09/23 00:10:37;;;;;;;9.52;7.10;;;12.50;99.90;;;;;;5052596;28;20042;-73
2022/09/23 00:13:04;;;;;;;10.85;7.40;;;12.50;99.90;;;;;;5073947;28;20452;-74
2022/09/23 00:15:32;;;;;;;15.30;7.70;;;12.50;99.90;;;;;;5081542;28;20046;-74
2022/09/23 00:17:58;;;;;;;11.90;7.43;;;12.50;99.90;;;;;;5065756;28;20038;-73
2022/09/23 00:20:24;;;;;;;10.27;7.15;;;12.50;99.90;;;;;;5061759;28;20061;-73
2022/09/23 00:22:50;;;;;;;11.13;7.57;;;12.40;99.90;;;;;;5069058;28;20503;-73
2022/09/23 00:25:16;;;;;;;12.30;7.45;;;12.40;99.90;;;;;;5039459;28;20054;-74
2022/09/23 00:27:41;;;;;;;9.50;7.47;;;12.30;99.90;;;;;;5020581;28;20508;-73
2022/09/23 00:30:08;;;;;;;13.73;7.57;;;12.30;99.90;;;;;;5031470;28;20038;-73
2022/09/23 00:32:35;;;;;;;11.82;7.88;;;12.20;99.90;;;;;;5011974;28;20286;-74
2022/09/23 00:35:02;;;;;;;13.80;8.57;;;12.20;99.90;;;;;;5030998;28;20393;-73
2022/09/23 00:37:29;;;;;;;11.35;7.95;;;12.20;99.90;;;;;;5037400;28;20430;-74
2022/09/23 00:39:55;;;;;;;12.38;8.65;;;12.20;99.90;;;;;;5018617;28;20035;-73
2022/09/23 00:42:23;;;;;;;11.95;8.30;;;12.20;99.90;;;;;;5025135;28;20032;-73
2022/09/23 00:44:51;;;;;;;10.15;8.50;;;12.10;99.90;;;;;;5048839;28;20123;-74
2022/09/23 00:47:40;;;;;;;10.70;7.97;;;12.10;99.90;;;;;;5039803;28;20133;-74
2022/09/23 00:50:26;;;;;;;12.85;8.02;;;12.10;99.90;;;;;;5031044;28;20030;-73
2022/09/23 00:52:55;;;;;;;14.48;8.18;;;12.10;99.90;;;;;;5008492;28;20513;-74
2022/09/23 00:55:35;;;;;;;9.95;7.95;;;12.00;99.90;;;;;;5047004;28;20042;-74
2022/09/23 00:58:05;;;;;;;12.52;7.57;;;12.00;99.90;;;;;;5059011;28;20046;-73
2022/09/23 01:00:32;;;;;;;10.25;8.00;;;12.00;99.90;;;;;;5059489;28;20036;-74
2022/09/23 01:02:59;;;;;;;9.88;7.30;;;12.00;99.90;;;;;;5039356;28;20076;-74
2022/09/23 01:05:25;;;;;;;12.00;7.85;;;12.00;99.90;;;;;;5028426;28;20048;-73
2022/09/23 01:07:52;;;;;;;13.52;7.50;;;11.90;99.90;;;;;;5031460;28;20051;-73
2022/09/23 01:10:19;;;;;;;10.75;7.43;;;11.90;99.90;;;;;;5029817;28;20046;-73
2022/09/23 01:12:44;;;;;;;;;;;12.00;99.90;;;;;;5049711;28;20443;-73
2022/09/23 01:15:37;;;;;;;10.63;6.97;;;12.00;99.90;;;;;;5036905;28;20039;-73
2022/09/23 01:18:33;;;;;;;11.13;6.88;;;12.00;99.90;;;;;;5027386;28;20048;-73
2022/09/23 01:21:13;;;;;;;9.07;7.25;;;12.00;99.90;;;;;;5026523;28;20522;-74
2022/09/23 01:24:06;;;;;;;9.60;7.05;;;12.00;99.90;;;;;;5038884;28;20043;-73
2022/09/23 01:26:55;;;;;;;9.48;6.40;;;12.00;99.90;;;;;;5053886;28;20052;-73
2022/09/23 01:29:21;;;;;;;8.80;6.72;;;12.00;99.90;;;;;;5081732;28;20080;-73
2022/09/23 01:32:08;;;;;;;8.87;6.93;;;12.00;99.90;;;;;;5071476;28;20067;-73
2022/09/23 01:34:41;;;;;;;10.48;6.90;;;12.00;99.90;;;;;;5078719;28;20166;-73
2022/09/23 01:37:38;;;;;;;9.32;6.93;;;11.90;99.90;;;;;;5078883;28;20121;-73
2022/09/23 01:40:24;;;;;;;11.63;7.43;;;11.90;99.90;;;;;;5052988;28;20139;-73
2022/09/23 01:43:05;;;;;;;9.85;7.10;;;11.90;99.90;;;;;;5083477;28;20044;-73
2022/09/23 01:45:42;;;;;;;8.90;7.28;;;11.90;99.90;;;;;;5071471;28;20082;-73
2022/09/23 01:48:20;;;;;;;10.07;7.93;;;11.90;99.90;;;;;;5084977;28;20044;-73
2022/09/23 01:50:59;;;;;;;11.85;7.38;;;11.80;99.90;;;;;;5070920;28;20044;-73
2022/09/23 01:53:31;;;;;;;9.48;7.30;;;11.80;99.90;;;;;;5075795;28;20138;-73
2022/09/23 01:56:04;;;;;;;10.68;7.72;;;11.80;99.90;;;;;;5064296;28;20032;-74
2022/09/23 01:58:45;;;;;;;9.90;7.88;;;11.80;99.90;;;;;;5071444;28;20040;-73
2022/09/23 02:01:17;;;;;;;10.77;7.20;;;11.80;99.90;;;;;;5082386;28;20032;-73
2022/09/23 02:03:58;;;;;;;12.00;7.82;;;11.70;99.90;;;;;;5078634;28;20109;-74
2022/09/23 02:06:33;;;;;;;10.85;7.35;;;11.80;99.90;;;;;;5078380;28;20045;-74
2022/09/23 02:09:09;;;;;;;9.32;7.15;;;11.70;99.90;;;;;;5080845;28;20402;-73
2022/09/23 02:11:36;;;;;;;9.90;7.60;;;11.70;99.90;;;;;;5080361;28;20466;-74
2022/09/23 02:14:14;;;;;;;8.38;7.40;;;11.70;99.90;;;;;;5080830;28;20768;-74
2022/09/23 02:16:54;;;;;;;10.40;7.63;;;11.70;99.90;;;;;;5081079;28;20079;-73
2022/09/23 02:19:26;;;;;;;10.27;7.07;;;11.70;99.90;;;;;;5073732;28;20123;-73
2022/09/23 02:22:03;;;;;;;8.40;7.15;;;11.70;99.90;;;;;;5075778;28;20047;-73
2022/09/23 02:24:31;;;;;;;9.45;7.57;;;11.60;99.90;;;;;;5075886;28;20029;-74
2022/09/23 02:27:33;;;;;;;7.85;7.03;;;11.60;99.90;;;;;;5085262;28;20052;-73
2022/09/23 02:30:20;;;;;;;9.48;6.82;;;11.60;99.90;;;;;;5082941;28;20492;-73
2022/09/23 02:32:58;;;;;;;10.43;7.40;;;11.60;99.90;;;;;;5082667;28;20044;-73
2022/09/23 02:35:39;;;;;;;9.15;6.85;;;11.50;99.90;;;;;;5085793;28;20485;-73
2022/09/23 02:38:10;;;;;;;8.50;7.20;;;11.50;99.90;;;;;;5071753;28;20619;-73
2022/09/23 02:40:57;;;;;;;8.18;7.22;;;11.50;99.90;;;;;;5075916;28;20034;-73
2022/09/23 02:43:35;;;;;;;8.37;6.67;;;11.50;99.90;;;;;;5081595;28;20044;-73
2022/09/23 02:46:03;;;;;;;8.60;7.10;;;11.50;99.90;;;;;;5081311;28;20110;-73
2022/09/23 02:48:39;;;;;;;9.10;7.43;;;11.50;99.90;;;;;;5075590;28;20063;-73
2022/09/23 02:51:05;;;;;;;9.23;7.93;;;11.50;99.90;;;;;;5064351;28;20037;-73
2022/09/23 02:53:35;;;;;;;12.52;7.95;;;11.40;99.90;;;;;;5070656;28;20094;-73
2022/09/23 02:56:01;;;;;;;10.60;7.03;;;11.40;99.90;;;;;;5047554;28;20032;-73
2022/09/23 02:58:28;;;;;;;9.45;7.45;;;11.30;99.90;;;;;;5078150;28;20485;-73
2022/09/23 03:01:09;;;;;;;11.27;7.25;;;11.30;99.90;;;;;;5070634;28;20485;-73
2022/09/23 03:04:03;;;;;;;9.43;7.25;;;11.20;99.90;;;;;;5076913;28;20032;-74
2022/09/23 03:06:59;;;;;;;8.98;7.93;;;11.20;99.90;;;;;;5079895;28;20047;-74
2022/09/23 03:09:29;;;;;;;10.05;7.30;;;11.20;99.90;;;;;;5081359;28;20045;-74
2022/09/23 03:12:33;;;;;;;9.43;7.43;;;11.10;99.90;;;;;;5074177;28;20047;-74
2022/09/23 03:15:25;;;;;;;10.65;7.90;;;11.10;99.90;;;;;;5086352;28;20051;-74
2022/09/23 03:18:07;;;;;;;8.27;7.22;;;11.00;99.90;;;;;;5046215;28;20059;-73
2022/09/23 03:20:39;;;;;;;9.10;7.50;;;11.00;99.90;;;;;;5086273;28;20032;-74
2022/09/23 03:23:09;;;;;;;10.60;8.02;;;11.00;99.90;;;;;;5078018;28;20044;-74
2022/09/23 03:25:38;;;;;;;11.27;8.68;;;11.00;99.90;;;;;;5049826;28;20054;-74
2022/09/23 03:28:07;;;;;;;12.23;8.07;;;10.90;99.90;;;;;;5040559;28;20041;-73
2022/09/23 03:30:36;;;;;;;9.98;8.07;;;10.90;99.90;;;;;;5022071;28;20038;-74
2022/09/23 03:33:05;;;;;;;9.98;7.78;;;10.90;99.90;;;;;;5032561;28;20052;-74
2022/09/23 03:36:48;;;;;;;11.57;8.10;;;10.90;99.90;;;;;;5034781;28;20409;-73
2022/09/23 03:38:24;;;;;;;12.77;8.23;;;10.80;99.90;;;;;;5060725;28;20041;-74
2022/09/23 03:40:53;;;;;;;11.50;8.68;;;11.00;99.90;;;;;;5023513;28;20563;-74
2022/09/23 03:43:19;;;;;;;10.32;8.40;;;10.80;99.90;;;;;;5026471;28;20040;-73
2022/09/23 03:45:46;;;;;;;10.10;8.98;;;10.80;99.90;;;;;;5044986;28;20708;-74
2022/09/23 03:48:13;;;;;;;10.35;8.82;;;10.70;99.90;;;;;;5016433;28;20369;-74
2022/09/23 03:50:40;;;;;;;11.85;8.82;;;10.60;99.90;;;;;;5038834;28;20052;-74
2022/09/23 03:53:06;;;;;;;10.18;8.60;;;10.60;99.90;;;;;;4987487;28;20076;-73
2022/09/23 03:55:33;;;;;;;12.05;8.50;;;10.60;99.90;;;;;;5024268;28;20069;-74
2022/09/23 03:57:59;;;;;;;10.80;8.45;;;10.60;99.90;;;;;;5010312;28;20038;-74
2022/09/23 04:00:25;;;;;;;11.67;8.50;;;10.50;99.90;;;;;;5039057;28;20046;-73
2022/09/23 04:02:50;;;;;;;10.02;8.73;;;10.50;99.90;;;;;;5034556;28;20102;-73
2022/09/23 04:05:16;;;;;;;12.10;8.27;;;10.50;99.90;;;;;;5012641;28;20117;-73
2022/09/23 04:07:42;;;;;;;10.02;8.38;;;10.50;99.90;;;;;;5048777;28;20037;-73
2022/09/23 04:10:09;;;;;;;12.40;8.63;;;10.50;99.90;;;;;;4981720;28;20455;-73
2022/09/23 04:12:36;;;;;;;11.40;9.40;;;10.40;99.90;;;;;;4988487;28;20038;-73
2022/09/23 04:15:01;;;;;;;11.77;8.68;;;10.40;99.90;;;;;;5023795;28;20051;-73
2022/09/23 04:17:27;;;;;;;10.53;8.57;;;10.40;99.90;;;;;;4999871;28;20040;-73
2022/09/23 04:19:53;;;;;;;12.37;8.70;;;10.40;99.90;;;;;;5070642;28;20328;-73
2022/09/23 04:22:18;;;;;;;11.70;9.20;;;10.40;99.90;;;;;;5024087;28;20049;-73
2022/09/23 04:24:44;;;;;;;10.75;8.85;;;10.30;99.90;;;;;;5047041;28;20526;-73
2022/09/23 04:27:10;;;;;;;13.87;9.33;;;10.40;99.90;;;;;;5072398;28;20076;-73
2022/09/23 04:29:35;;;;;;;12.63;8.97;;;10.30;99.90;;;;;;5084655;28;20040;-74
2022/09/23 04:32:01;;;;;;;12.93;8.93;;;10.30;99.90;;;;;;5083932;28;20044;-74
2022/09/23 04:34:27;;;;;;;12.77;9.43;;;10.30;99.90;;;;;;5078147;28;20042;-74
2022/09/23 04:36:52;;;;;;;10.10;9.10;;;10.30;99.90;;;;;;5056726;28;20414;-73
2022/09/23 04:39:18;;;;;;;12.67;9.20;;;10.30;99.90;;;;;;5057642;28;20044;-73
2022/09/23 04:41:45;;;;;;;11.05;9.25;;;10.30;99.90;;;;;;5088879;28;20035;-73
2022/09/23 04:44:11;;;;;;;;;;;10.30;99.90;;;;;;5082902;28;20074;-73
2022/09/23 04:46:37;;;;;;;11.90;9.52;;;10.20;99.90;;;;;;5069805;28;19974;-73
2022/09/23 04:49:04;;;;;;;10.45;8.73;;;10.20;99.90;;;;;;5081842;28;20043;-73
2022/09/23 04:51:30;;;;;;;12.38;10.02;;;10.20;99.90;;;;;;5078831;28;20044;-73
2022/09/23 04:53:56;;;;;;;13.77;10.43;;;10.20;99.90;;;;;;5088922;28;20051;-73
2022/09/23 04:56:26;;;;;;;14.43;10.87;;;10.20;99.90;;;;;;5087224;28;20392;-72
2022/09/23 04:58:52;;;;;;;12.30;9.85;;;10.20;99.90;;;;;;5079684;28;20085;-73
2022/09/23 05:01:24;;;;;;;12.70;10.82;;;10.20;99.90;;;;;;5088698;28;20035;-72
2022/09/23 05:03:52;;;;;;;15.30;10.38;;;10.20;99.90;;;;;;5090153;28;20284;-74
2022/09/23 05:06:19;;;;;;;11.38;9.77;;;10.30;99.90;;;;;;5082339;28;20497;-74
2022/09/23 05:08:50;;;;;;;13.35;10.63;;;10.20;99.90;;;;;;5067352;28;20076;-74
2022/09/23 05:11:17;;;;;;;13.70;10.88;;;10.20;99.90;;;;;;5089144;28;20036;-74
2022/09/23 05:13:44;;;;;;;14.38;10.48;;;10.20;99.90;;;;;;5073397;28;20040;-72
2022/09/23 05:16:11;;;;;;;;;;;10.20;99.90;;;;;;5063411;28;20044;-72
2022/09/23 05:18:40;;;;;;;11.20;9.73;;;10.10;99.90;;;;;;5082603;28;20407;-72
2022/09/23 05:21:06;;;;;;;14.23;10.52;;;10.10;99.90;;;;;;5067673;28;20136;-73
2022/09/23 05:23:32;;;;;;;11.80;10.02;;;10.10;99.90;;;;;;5074498;28;20094;-72
2022/09/23 05:26:04;;;;;;;13.00;10.68;;;10.10;99.90;;;;;;5067821;28;20052;-73
2022/09/23 05:28:33;;;;;;;12.77;10.93;;;10.10;99.90;;;;;;5072642;28;20047;-73
2022/09/23 05:31:12;;;;;;;13.52;10.80;;;10.10;99.90;;;;;;5089461;28;20078;-72
2022/09/23 05:33:38;;;;;;;12.50;10.85;;;10.10;99.90;;;;;;5081848;28;20486;-73
2022/09/23 05:36:04;;;;;;;14.93;10.93;;;10.00;99.90;;;;;;5065475;28;20049;-73
2022/09/23 05:38:31;;;;;;;13.85;10.63;;;10.00;99.90;;;;;;5051558;28;20039;-73
2022/09/23 05:41:02;;;;;;;16.15;11.35;;;10.10;99.90;;;;;;5081862;28;20097;-73
2022/09/23 05:43:28;;;;;;;15.15;11.25;;;10.00;99.90;;;;;;5072870;28;20044;-73
2022/09/23 05:46:05;;;;;;;15.88;12.32;;;10.00;99.90;;;;;;5042975;28;20120;-73
2022/09/23 05:48:32;;;;;;;14.13;10.38;;;10.00;99.90;;;;;;5081010;28;20162;-73
2022/09/23 05:50:58;;;;;;;13.18;10.82;;;10.10;99.90;;;;;;5061708;28;20075;-72
2022/09/23 05:53:25;;;;;;;12.75;10.27;;;10.20;99.90;;;;;;5068123;28;20614;-73
2022/09/23 05:55:53;;;;;;;13.88;10.85;;;10.20;99.90;;;;;;5069951;28;20070;-72
2022/09/23 05:58:19;;;;;;;14.27;11.55;;;10.30;99.90;;;;;;5088667;28;20032;-73
2022/09/23 06:00:47;;;;;;;14.18;10.82;;;10.30;99.90;;;;;;5089106;28;20058;-74
2022/09/23 06:03:14;;;;;;;14.32;10.68;;;10.30;99.90;;;;;;5088623;28;20097;-73
2022/09/23 06:05:44;;;;;;;14.35;11.80;;;10.30;99.90;;;;;;5088688;28;20085;-73
2022/09/23 06:08:09;;;;;;;14.65;11.63;;;10.40;99.90;;;;;;5076221;28;20051;-73
2022/09/23 06:10:41;;;;;;;13.90;11.13;;;10.40;99.90;;;;;;5070516;28;20478;-73
2022/09/23 06:13:07;;;;;;;13.57;11.30;;;10.40;99.90;;;;;;5083017;28;20032;-73
2022/09/23 06:15:34;;;;;;;16.50;11.70;;;10.40;99.90;;;;;;5088780;28;20036;-73
2022/09/23 06:18:00;;;;;;;18.45;11.10;;;10.40;99.90;;;;;;5086460;28;20044;-73
2022/09/23 06:20:26;;;;;;;14.97;11.60;;;10.50;99.90;;;;;;5085584;28;20043;-73
2022/09/23 06:22:52;;;;;;;12.15;10.85;;;10.60;99.90;;;;;;5087913;28;20412;-73
2022/09/23 06:25:18;;;;;;;14.32;10.85;;;10.60;99.90;;;;;;5051806;28;20043;-73
2022/09/23 06:27:53;;;;;;;17.27;11.23;;;10.70;99.90;;;;;;4986508;28;20050;-73
2022/09/23 06:30:22;;;;;;;15.52;11.75;;;10.80;99.90;;;;;;5003784;28;20059;-74
2022/09/23 06:32:54;;;;;;;16.25;11.82;;;10.80;99.90;;;;;;5031928;28;20162;-74
2022/09/23 06:35:25;;;;;;;16.90;12.00;;;10.80;99.90;;;;;;5068020;28;20489;-73
2022/09/23 06:37:51;;;;;;;13.73;11.40;;;10.90;99.90;;;;;;4987998;28;20393;-73
2022/09/23 06:40:17;;;;;;;14.57;11.30;;;11.00;99.90;;;;;;5050211;28;20064;-73
2022/09/23 06:42:43;;;;;;;14.00;11.57;;;11.00;99.90;;;;;;4992048;28;20443;-72
2022/09/23 06:45:12;;;;;;;16.27;11.68;;;11.00;99.90;;;;;;5015028;28;20034;-73
2022/09/23 06:47:38;;;;;;;15.30;11.43;;;11.10;99.90;;;;;;4986094;28;20072;-73
2022/09/23 06:50:05;;;;;;;13.68;11.73;;;11.20;99.90;;;;;;5057364;28;20056;-73
2022/09/23 06:52:31;;;;;;;16.90;12.30;;;11.30;99.90;;;;;;5041271;28;20085;-73
2022/09/23 06:54:56;;;;;;;14.30;11.27;;;11.30;99.90;;;;;;5050190;28;20046;-73
2022/09/23 06:57:23;;;;;;;15.60;12.50;;;11.40;99.90;;;;;;5035114;28;20039;-75
2022/09/23 06:59:49;;;;;;;14.45;11.93;;;11.90;99.90;;;;;;5030257;28;20055;-75
2022/09/23 07:02:15;;;;;;;14.85;11.95;;;11.50;99.90;;;;;;5034724;28;20117;-75
2022/09/23 07:04:40;;;;;;;16.03;12.40;;;11.40;99.90;;;;;;4986248;28;20164;-75
2022/09/23 07:07:06;;;;;;;14.88;11.82;;;11.50;99.90;;;;;;5038244;28;20289;-75
2022/09/23 07:09:32;;;;;;;13.00;11.63;;;11.50;99.90;;;;;;5031031;28;20119;-75
2022/09/23 07:11:57;;;;;;;13.60;11.50;;;11.60;99.90;;;;;;4992289;28;20044;-75
2022/09/23 07:14:23;;;;;;;15.70;11.83;;;11.60;99.90;;;;;;5007078;28;20345;-74
2022/09/23 07:16:49;;;;;;;16.30;13.07;;;11.60;99.90;;;;;;4985868;28;20046;-74
2022/09/23 07:19:15;;;;;;;13.75;12.13;;;11.60;99.90;;;;;;4985834;28;20806;-75
2022/09/23 07:21:41;;;;;;;13.85;12.38;;;11.60;99.90;;;;;;4984353;28;20034;-75
2022/09/23 07:24:07;;;;;;;14.60;11.73;;;11.70;99.90;;;;;;5044405;28;20036;-75
2022/09/23 07:26:33;;;;;;;14.48;11.57;;;11.70;99.90;;;;;;5044421;28;20395;-75
2022/09/23 07:29:03;;;;;;;14.23;11.75;;;11.70;99.90;;;;;;5074776;28;20134;-75
2022/09/23 07:31:34;;;;;;;16.05;12.02;;;11.80;99.90;;;;;;5036698;28;20123;-76
2022/09/23 07:34:00;;;;;;;14.57;12.40;;;12.00;99.90;;;;;;5078849;28;20158;-75
2022/09/23 07:36:27;;;;;;;13.25;11.70;;;12.00;99.90;;;;;;5072342;28;20536;-76
2022/09/23 07:39:01;;;;;;;15.23;12.38;;;12.10;99.90;;;;;;5080078;28;20498;-75
2022/09/23 07:41:28;;;;;;;15.80;12.20;;;12.10;99.90;;;;;;5080610;28;20047;-75
2022/09/23 07:43:57;;;;;;;15.70;12.35;;;12.00;99.90;;;;;;5072963;28;20028;-75
2022/09/23 07:46:28;;;;;;;13.20;11.80;;;12.10;99.90;;;;;;5070595;28;20131;-75
2022/09/23 07:48:54;;;;;;;13.82;11.75;;;12.20;99.90;;;;;;5082464;28;20037;-75
2022/09/23 07:51:26;;;;;;;15.70;11.40;;;12.30;99.90;;;;;;5089263;28;20058;-75
2022/09/23 07:53:53;;;;;;;13.93;11.85;;;12.40;99.90;;;;;;5063126;28;20115;-74
2022/09/23 07:56:21;;;;;;;13.52;12.02;;;12.30;99.90;;;;;;5084016;28;20036;-75
2022/09/23 07:58:58;;;;;;;14.65;12.30;;;12.60;99.90;;;;;;5081227;28;20044;-76
2022/09/23 08:01:30;;;;;;;16.02;11.60;;;12.60;99.90;;;;;;5083286;28;20032;-75
2022/09/23 08:04:02;;;;;;;14.82;11.32;;;12.70;99.90;;;;;;5090599;28;20044;-76
2022/09/23 08:06:28;;;;;;;13.88;11.32;;;12.80;99.90;;;;;;5086388;28;20408;-76
2022/09/23 08:08:57;;;;;;;13.00;11.30;;;13.00;99.90;;;;;;5072511;28;20131;-75
2022/09/23 08:11:24;;;;;;;14.05;11.30;;;13.10;99.90;;;;;;5076062;28;20486;-75
2022/09/23 08:13:51;;;;;;;12.23;10.93;;;13.20;99.90;;;;;;5064378;28;20519;-75
2022/09/23 08:16:16;;;;;;;13.20;11.80;;;13.30;99.90;;;;;;5090774;28;20040;-75
2022/09/23 08:18:45;;;;;;;12.60;10.83;;;13.50;99.90;;;;;;5060078;28;20032;-75
2022/09/23 08:21:11;;;;;;;14.27;11.30;;;13.70;99.90;;;;;;5079489;28;20119;-75
2022/09/23 08:23:37;;;;;;;13.40;10.65;;;13.90;99.90;;;;;;5086520;28;20433;-75
2022/09/23 08:26:05;;;;;;;12.27;10.98;;;14.10;99.90;;;;;;5089500;28;20048;-76
2022/09/23 08:28:32;;;;;;;13.43;10.20;;;14.30;99.90;;;;;;5063279;28;20037;-76
2022/09/23 08:30:58;;;;;;;11.27;9.93;;;14.40;99.90;;;;;;5077092;28;20040;-75
2022/09/23 08:33:25;;;;;;;12.20;10.18;;;14.60;99.90;;;;;;5073770;28;20040;-76
2022/09/23 08:35:52;;;;;;;13.43;10.45;;;14.60;99.90;;;;;;5088886;28;20040;-75
2022/09/23 08:38:19;;;;;;;13.60;10.45;;;14.60;99.90;;;;;;5090885;28;20036;-75
2022/09/23 08:40:48;;;;;;;12.25;10.25;;;14.60;99.90;;;;;;5056908;28;20044;-75
2022/09/23 08:43:26;;;;;;;11.77;9.95;;;14.60;99.90;;;;;;5086416;28;20112;-75
2022/09/23 08:45:54;;;;;;;11.57;10.35;;;14.50;99.90;;;;;;5063238;28;20367;-74
2022/09/23 08:48:37;;;;;;;10.70;9.30;;;14.70;99.90;;;;;;5080074;28;20401;-75
2022/09/23 08:51:06;;;;;;;10.23;9.20;;;14.70;99.90;;;;;;5085329;28;20044;-74
2022/09/23 08:53:36;;;;;;;10.05;8.98;;;15.00;99.90;;;;;;5074918;28;20045;-75
2022/09/23 08:56:16;;;;;;;11.77;9.32;;;15.30;99.90;;;;;;5061037;28;20512;-75
2022/09/23 08:58:44;;;;;;;12.93;9.43;;;15.30;99.90;;;;;;5057486;28;20398;-75
2022/09/23 09:01:44;;;;;;;9.82;8.73;;;15.30;99.90;;;;;;5066277;28;20241;-75
2022/09/23 09:04:27;;;;;;;12.55;8.90;;;15.30;99.90;;;;;;5075261;28;20090;-76
2022/09/23 09:07:08;;;;;;;10.55;9.45;;;15.30;99.90;;;;;;5056228;28;20047;-76
2022/09/23 09:09:53;;;;;;;11.30;9.48;;;15.30;99.90;;;;;;5059716;28;20508;-75
2022/09/23 09:12:29;;;;;;;11.00;9.23;;;15.30;99.90;;;;;;5085200;28;20561;-75
2022/09/23 09:15:11;;;;;;;12.85;9.80;;;15.30;99.90;;;;;;5067995;28;20040;-75
2022/09/23 09:18:03;;;;;;;11.38;9.00;;;15.40;99.90;;;;;;5072597;28;20046;-75
2022/09/23 09:20:38;;;;;;;12.18;9.07;;;15.30;99.90;;;;;;5089072;28;20043;-75
2022/09/23 09:23:18;;;;;;;11.52;9.10;;;15.30;99.90;;;;;;5086803;28;20068;-76
2022/09/23 09:25:46;;;;;;;10.88;8.80;;;15.40;99.90;;;;;;5046914;28;20054;-76
2022/09/23 09:28:40;;;;;;;12.55;9.60;;;15.40;99.90;;;;;;5023025;28;20055;-76
2022/09/23 09:31:27;;;;;;;12.70;9.02;;;15.40;99.90;;;;;;5057735;28;20036;-76
2022/09/23 09:33:59;;;;;;;10.82;9.02;;;15.40;99.90;;;;;;5065495;28;20037;-76
2022/09/23 09:36:46;;;;;;;12.80;8.85;;;15.40;99.90;;;;;;5049598;28;20047;-76
2022/09/23 09:39:13;;;;;;;12.20;9.50;;;15.40;99.90;;;;;;5000872;28;20042;-75
2022/09/23 09:41:47;;;;;;;11.02;8.60;;;15.40;99.90;;;;;;5006205;28;20058;-76
2022/09/23 09:44:34;;;;;;;13.15;8.80;;;15.40;99.90;;;;;;5006951;28;20041;-75
2022/09/23 09:48:02;;;;;;;11.43;8.87;;;15.40;99.90;;;;;;5066273;28;20049;-75
2022/09/23 09:50:48;;;;;;;12.85;8.60;;;15.30;99.90;;;;;;4985918;28;20052;-75
2022/09/23 09:53:30;;;;;;;11.27;8.70;;;15.40;99.90;;;;;;5009128;28;20458;-75
2022/09/23 09:55:58;;;;;;;10.93;8.80;;;15.40;99.90;;;;;;5023563;28;20077;-76
2022/09/23 09:58:27;;;;;;;11.02;8.48;;;15.40;99.90;;;;;;4987250;28;20103;-75
2022/09/23 10:00:53;;;;;;;9.85;8.13;;;15.40;99.90;;;;;;4987641;28;20484;-75
2022/09/23 10:03:38;;;;;;;11.43;8.43;;;15.40;99.90;;;;;;5040706;28;20040;-75
2022/09/23 10:06:17;;;;;;;10.48;9.38;;;15.40;99.90;;;;;;4987221;28;20042;-75
2022/09/23 10:09:05;;;;;;;9.68;7.82;;;15.40;99.90;;;;;;5008655;28;20513;-75
2022/09/23 10:11:32;;;;;;;9.77;8.00;;;15.50;99.90;;;;;;5043275;28;20080;-75
2022/09/23 10:14:11;;;;;;;11.45;8.15;;;15.50;99.90;;;;;;5019035;28;20109;-75
2022/09/23 10:16:39;;;;;;;10.10;7.60;;;15.60;99.90;;;;;;5029246;28;20092;-75
2022/09/23 10:19:26;;;;;;;8.85;7.95;;;15.70;99.90;;;;;;5001454;28;20049;-75
2022/09/23 10:21:59;;;;;;;9.47;8.17;;;15.80;99.90;;;;;;5040047;28;20036;-75
2022/09/23 10:24:31;;;;;;;11.23;8.30;;;15.80;99.90;;;;;;5028681;28;20350;-76
2022/09/23 10:27:06;;;;;;;10.80;7.50;;;15.70;99.90;;;;;;5043629;28;20091;-76
2022/09/23 10:29:45;;;;;;;10.30;8.32;;;15.80;99.90;;;;;;5083357;28;20040;-76
2022/09/23 10:32:31;;;;;;;11.63;7.85;;;15.80;99.90;;;;;;5084159;28;20050;-76
2022/09/23 10:35:12;;;;;;;10.32;7.63;;;15.80;99.90;;;;;;5062486;28;20055;-76
2022/09/23 10:37:55;;;;;;;11.13;8.20;;;15.90;99.90;;;;;;5081349;28;20139;-76
2022/09/23 10:46:37;;;;;;;9.90;8.00;;;16.00;99.90;;;;;;5078124;28;20047;-76
2022/09/23 10:49:42;;;;;;;12.35;7.78;;;16.00;99.90;;;;;;5068511;28;20489;-76
2022/09/23 10:52:35;;;;;;;11.40;8.32;;;16.00;99.90;;;;;;5080225;28;20105;-76
2022/09/23 10:55:29;;;;;;;10.00;8.70;;;16.10;99.90;;;;;;5072344;28;20275;-76
2022/09/23 10:58:18;;;;;;;9.40;7.90;;;16.20;99.90;;;;;;5052753;28;20036;-76
2022/09/23 11:01:05;;;;;;;15.30;8.45;;;16.20;99.90;;;;;;5080223;28;20036;-77
2022/09/23 11:03:49;;;;;;;9.70;7.95;;;16.20;99.90;;;;;;5076153;28;20028;-76
2022/09/23 11:06:36;;;;;;;9.57;7.68;;;16.20;99.90;;;;;;5069092;28;20040;-76
2022/09/23 11:09:29;;;;;;;11.75;8.68;;;16.20;99.90;;;;;;5088193;28;20032;-76
2022/09/23 11:11:58;;;;;;;8.80;7.18;;;16.40;99.90;;;;;;5083242;28;20079;-76
2022/09/23 11:14:47;;;;;;;11.23;7.95;;;16.40;99.90;;;;;;5079376;28;20043;-76
2022/09/23 11:17:49;;;;;;;9.48;7.70;;;16.50;99.90;;;;;;5071591;28;20068;-77
2022/09/23 11:20:25;;;;;;;12.18;8.48;;;16.60;99.90;;;;;;5080865;28;20036;-76
2022/09/23 11:23:13;;;;;;;12.67;7.97;;;16.70;99.90;;;;;;5080813;28;20565;-75
2022/09/23 11:25:42;;;;;;;;;;;16.70;99.90;;;;;;5073327;28;20056;-76
2022/09/23 11:28:16;;;;;;;10.40;8.02;;;16.70;99.90;;;;;;5006865;28;20255;-75
2022/09/23 11:31:03;;;;;;;10.43;7.60;;;16.70;99.90;;;;;;4978023;28;20045;-75
2022/09/23 11:34:01;;;;;;;9.55;7.82;;;16.70;99.90;;;;;;5016397;28;20409;-75
2022/09/23 11:36:34;;;;;;;12.02;7.82;;;16.70;99.90;;;;;;4986348;28;20064;-75
2022/09/23 11:39:11;;;;;;;14.18;9.02;;;16.80;99.90;;;;;;5034845;28;20049;-76
2022/09/23 11:41:38;;;;;;;12.43;9.00;;;16.80;99.90;;;;;;4988708;28;20050;-76
2022/09/23 11:44:07;;;;;;;11.57;8.90;;;16.70;99.90;;;;;;5051576;28;20040;-76
2022/09/23 11:46:44;;;;;;;12.23;8.65;;;16.70;99.90;;;;;;5058997;28;20090;-76
2022/09/23 11:49:20;;;;;;;13.98;8.88;;;16.70;99.90;;;;;;5051229;28;20040;-76
2022/09/23 11:52:12;;;;;;;11.70;8.55;;;16.70;99.90;;;;;;5009393;28;20487;-76
2022/09/23 11:55:05;;;;;;;10.95;8.85;;;16.70;99.90;;;;;;4988916;28;20039;-76
2022/09/23 11:57:37;;;;;;;11.82;8.40;;;16.70;99.90;;;;;;5055422;28;20115;-76
2022/09/23 12:00:06;;;;;;;11.23;8.68;;;16.70;99.90;;;;;;4995982;28;20036;-76
2022/09/23 12:02:51;;;;;;;12.32;8.70;;;16.60;99.90;;;;;;5054377;28;20037;-76
2022/09/23 12:05:21;;;;;;;12.38;8.65;;;16.70;99.90;;;;;;5047130;28;20480;-76
2022/09/23 12:07:47;;;;;;;12.10;8.70;;;16.80;99.90;;;;;;4972278;28;20039;-76
2022/09/23 12:10:14;;;;;;;11.10;8.40;;;16.70;99.90;;;;;;4988984;28;20453;-76
2022/09/23 12:12:47;;;;;;;11.75;7.85;;;16.70;99.90;;;;;;4964575;28;20285;-76
2022/09/23 12:15:22;;;;;;;12.80;8.13;;;16.80;99.90;;;;;;5036309;28;20042;-76
2022/09/23 12:17:53;;;;;;;12.00;8.55;;;16.70;99.90;;;;;;5005218;28;20055;-76
2022/09/23 12:20:41;;;;;;;11.95;8.65;;;16.70;99.90;;;;;;5034774;28;20041;-76
2022/09/23 12:23:34;;;;;;;12.15;8.40;;;16.80;99.90;;;;;;5061032;28;20036;-76
2022/09/23 12:26:05;;;;;;;10.00;8.82;;;16.80;99.90;;;;;;5058867;28;20209;-76
2022/09/23 12:28:43;;;;;;;10.52;8.35;;;16.80;99.90;;;;;;5090646;28;20123;-76
2022/09/23 12:31:12;;;;;;;13.35;8.98;;;16.80;99.90;;;;;;5081271;28;20040;-76
2022/09/23 12:33:38;;;;;;;15.32;9.10;;;16.90;99.90;;;;;;5085201;28;20063;-76
2022/09/23 12:36:11;;;;;;;10.25;8.23;;;17.00;99.90;;;;;;5087869;28;20040;-76
2022/09/23 12:38:45;;;;;;;11.88;8.38;;;17.10;99.90;;;;;;5089852;28;20413;-76
2022/09/23 12:41:19;;;;;;;13.07;8.73;;;17.20;99.90;;;;;;5091242;28;20451;-76
2022/09/23 12:44:11;;;;;;;10.15;8.38;;;17.20;99.90;;;;;;5082371;28;20033;-76
2022/09/23 12:46:37;;;;;;;12.65;8.95;;;17.20;99.90;;;;;;5068714;28;20036;-76
2022/09/23 12:49:05;;;;;;;9.85;8.82;;;17.30;99.90;;;;;;5077171;28;20081;-77
2022/09/23 12:51:35;;;;;;;11.88;9.43;;;17.40;99.90;;;;;;5084994;28;20044;-76
2022/09/23 12:54:04;;;;;;;15.48;10.23;;;17.40;99.90;;;;;;5079044;28;20134;-76
2022/09/23 12:56:35;;;;;;;11.82;9.70;;;17.30;99.90;;;;;;5085707;28;20047;-76
2022/09/23 12:59:24;;;;;;;12.68;9.40;;;17.30;99.90;;;;;;5083397;28;20036;-77
2022/09/23 13:01:50;;;;;;;11.45;9.63;;;17.30;99.90;;;;;;5073523;28;20040;-77
2022/09/23 13:07:23;;;;;;;13.35;10.20;;;17.30;99.90;;;;;;5082526;28;20078;-77
2022/09/23 13:09:54;;;;;;;17.52;9.85;;;17.30;99.90;;;;;;5089875;28;20048;-77
2022/09/23 13:12:27;;;;;;;11.73;9.48;;;17.30;99.90;;;;;;5090554;28;20550;-77
2022/09/23 13:14:56;;;;;;;12.75;9.80;;;17.30;99.90;;;;;;5070627;28;20047;-77